sensor_id;sensor_type;location;lat;lon;timestamp;pressure;altitude;pressure_sealevel;temperature;humidity
78755;BME280;68073;54.176;-4.554;2023-04-03T00:01:07;102720.01;;;7.61;44.72
78755;BME280;68073;54.176;-4.554;2023-04-03T00:03:32;102719.90;;;7.97;44.28
78755;BME280;68073;54.176;-4.554;2023-04-03T00:05:58;102723.09;;;7.99;44.29
78755;BME280;68073;54.176;-4.554;2023-04-03T00:08:24;102724.06;;;7.75;44.88
78755;BME280;68073;54.176;-4.554;2023-04-03T00:10:50;102720.86;;;7.99;44.58
78755;BME280;68073;54.176;-4.554;2023-04-03T00:13:15;102719.72;;;7.82;44.81
78755;BME280;68073;54.176;-4.554;2023-04-03T00:15:41;102714.97;;;7.95;44.74
78755;BME280;68073;54.176;-4.554;2023-04-03T00:18:06;102714.16;;;7.98;44.71
78755;BME280;68073;54.176;-4.554;2023-04-03T00:20:32;102711.86;;;8.10;44.86
78755;BME280;68073;54.176;-4.554;2023-04-03T00:22:58;102706.69;;;7.66;45.27
78755;BME280;68073;54.176;-4.554;2023-04-03T00:25:22;102704.49;;;7.57;45.43
78755;BME280;68073;54.176;-4.554;2023-04-03T00:27:47;102701.30;;;7.71;44.84
78755;BME280;68073;54.176;-4.554;2023-04-03T00:30:16;102702.44;;;7.70;44.34
78755;BME280;68073;54.176;-4.554;2023-04-03T00:32:38;102702.13;;;7.56;43.83
78755;BME280;68073;54.176;-4.554;2023-04-03T00:35:04;102696.86;;;7.53;43.79
78755;BME280;68073;54.176;-4.554;2023-04-03T00:37:29;102694.02;;;7.52;43.56
78755;BME280;68073;54.176;-4.554;2023-04-03T00:39:55;102693.43;;;7.93;43.47
78755;BME280;68073;54.176;-4.554;2023-04-03T00:42:20;102691.12;;;7.49;43.86
78755;BME280;68073;54.176;-4.554;2023-04-03T00:47:12;102694.98;;;7.59;44.24
78755;BME280;68073;54.176;-4.554;2023-04-03T00:49:37;102697.87;;;6.95;44.45
78755;BME280;68073;54.176;-4.554;2023-04-03T00:52:01;102695.47;;;6.91;44.60
78755;BME280;68073;54.176;-4.554;2023-04-03T00:54:27;102693.53;;;7.20;44.03
78755;BME280;68073;54.176;-4.554;2023-04-03T00:56:53;102693.27;;;7.13;44.00
78755;BME280;68073;54.176;-4.554;2023-04-03T00:59:22;102690.67;;;7.28;43.76
78755;BME280;68073;54.176;-4.554;2023-04-03T01:01:43;102688.47;;;7.45;43.67
78755;BME280;68073;54.176;-4.554;2023-04-03T01:06:37;102684.53;;;7.60;44.81
78755;BME280;68073;54.176;-4.554;2023-04-03T01:09:00;102681.53;;;7.73;44.84
78755;BME280;68073;54.176;-4.554;2023-04-03T01:11:25;102682.89;;;8.00;46.97
78755;BME280;68073;54.176;-4.554;2023-04-03T01:13:51;102677.55;;;7.91;47.36
78755;BME280;68073;54.176;-4.554;2023-04-03T01:16:16;102677.13;;;8.46;47.02
78755;BME280;68073;54.176;-4.554;2023-04-03T01:18:42;102672.91;;;8.08;47.74
78755;BME280;68073;54.176;-4.554;2023-04-03T01:23:40;102670.43;;;8.05;49.09
78755;BME280;68073;54.176;-4.554;2023-04-03T01:25:58;102668.59;;;8.41;48.90
78755;BME280;68073;54.176;-4.554;2023-04-03T01:28:25;102667.11;;;8.43;49.44
78755;BME280;68073;54.176;-4.554;2023-04-03T01:30:53;102664.23;;;8.34;50.01
78755;BME280;68073;54.176;-4.554;2023-04-03T01:33:14;102663.81;;;8.73;50.01
78755;BME280;68073;54.176;-4.554;2023-04-03T01:35:40;102660.18;;;8.53;50.70
78755;BME280;68073;54.176;-4.554;2023-04-03T01:38:05;102659.19;;;8.78;50.56
78755;BME280;68073;54.176;-4.554;2023-04-03T01:40:31;102661.37;;;8.77;50.32
78755;BME280;68073;54.176;-4.554;2023-04-03T01:42:57;102660.51;;;8.66;50.81
78755;BME280;68073;54.176;-4.554;2023-04-03T01:45:22;102662.64;;;8.70;50.08
78755;BME280;68073;54.176;-4.554;2023-04-03T01:47:47;102662.75;;;8.94;49.41
78755;BME280;68073;54.176;-4.554;2023-04-03T01:50:12;102658.13;;;8.68;49.63
78755;BME280;68073;54.176;-4.554;2023-04-03T01:52:38;102659.78;;;8.74;48.98
78755;BME280;68073;54.176;-4.554;2023-04-03T01:55:03;102661.30;;;8.83;49.60
78755;BME280;68073;54.176;-4.554;2023-04-03T01:57:28;102659.27;;;8.49;49.45
78755;BME280;68073;54.176;-4.554;2023-04-03T01:59:53;102658.81;;;8.59;49.33
78755;BME280;68073;54.176;-4.554;2023-04-03T02:02:19;102663.25;;;8.61;48.61
78755;BME280;68073;54.176;-4.554;2023-04-03T02:04:45;102663.76;;;8.89;48.42
78755;BME280;68073;54.176;-4.554;2023-04-03T02:07:10;102666.65;;;8.94;50.44
78755;BME280;68073;54.176;-4.554;2023-04-03T02:09:35;102668.64;;;8.52;50.34
78755;BME280;68073;54.176;-4.554;2023-04-03T02:12:00;102667.31;;;8.64;49.19
78755;BME280;68073;54.176;-4.554;2023-04-03T02:14:25;102669.11;;;8.61;48.35
78755;BME280;68073;54.176;-4.554;2023-04-03T02:16:50;102666.63;;;8.54;48.63
78755;BME280;68073;54.176;-4.554;2023-04-03T02:19:16;102664.27;;;8.96;49.47
78755;BME280;68073;54.176;-4.554;2023-04-03T02:21:41;102668.49;;;8.58;48.97
78755;BME280;68073;54.176;-4.554;2023-04-03T02:24:06;102670.42;;;8.66;48.71
78755;BME280;68073;54.176;-4.554;2023-04-03T02:26:32;102672.14;;;8.78;47.75
78755;BME280;68073;54.176;-4.554;2023-04-03T02:28:57;102675.96;;;8.52;47.39
78755;BME280;68073;54.176;-4.554;2023-04-03T02:31:22;102674.91;;;8.65;48.59
78755;BME280;68073;54.176;-4.554;2023-04-03T02:33:48;102676.10;;;8.95;47.45
78755;BME280;68073;54.176;-4.554;2023-04-03T02:36:13;102676.23;;;8.47;48.48
78755;BME280;68073;54.176;-4.554;2023-04-03T02:38:38;102677.21;;;8.48;48.00
78755;BME280;68073;54.176;-4.554;2023-04-03T02:41:05;102674.62;;;9.18;48.17
78755;BME280;68073;54.176;-4.554;2023-04-03T02:43:29;102672.74;;;8.55;49.04
78755;BME280;68073;54.176;-4.554;2023-04-03T02:45:54;102675.73;;;8.59;48.55
78755;BME280;68073;54.176;-4.554;2023-04-03T02:48:19;102678.01;;;8.50;48.26
78755;BME280;68073;54.176;-4.554;2023-04-03T02:50:45;102677.13;;;8.62;47.26
78755;BME280;68073;54.176;-4.554;2023-04-03T02:53:11;102677.05;;;8.77;47.75
78755;BME280;68073;54.176;-4.554;2023-04-03T02:55:36;102676.34;;;8.66;47.98
78755;BME280;68073;54.176;-4.554;2023-04-03T02:58:01;102674.42;;;8.86;48.91
78755;BME280;68073;54.176;-4.554;2023-04-03T03:00:26;102674.07;;;8.52;48.40
78755;BME280;68073;54.176;-4.554;2023-04-03T03:02:51;102674.32;;;8.73;48.35
78755;BME280;68073;54.176;-4.554;2023-04-03T03:05:17;102674.60;;;8.85;48.33
78755;BME280;68073;54.176;-4.554;2023-04-03T03:07:41;102670.84;;;8.81;47.04
78755;BME280;68073;54.176;-4.554;2023-04-03T03:10:08;102668.31;;;8.21;47.45
78755;BME280;68073;54.176;-4.554;2023-04-03T03:12:33;102668.04;;;8.51;48.41
78755;BME280;68073;54.176;-4.554;2023-04-03T03:14:58;102660.23;;;8.35;47.78
78755;BME280;68073;54.176;-4.554;2023-04-03T03:17:23;102655.16;;;8.64;47.23
78755;BME280;68073;54.176;-4.554;2023-04-03T03:19:48;102656.09;;;8.44;47.64
78755;BME280;68073;54.176;-4.554;2023-04-03T03:22:13;102654.16;;;8.32;47.19
78755;BME280;68073;54.176;-4.554;2023-04-03T03:24:38;102653.84;;;8.58;47.25
78755;BME280;68073;54.176;-4.554;2023-04-03T03:27:03;102648.70;;;8.63;47.44
78755;BME280;68073;54.176;-4.554;2023-04-03T03:29:28;102645.18;;;8.74;47.34
78755;BME280;68073;54.176;-4.554;2023-04-03T03:31:54;102642.00;;;8.40;48.08
78755;BME280;68073;54.176;-4.554;2023-04-03T03:34:19;102642.62;;;8.54;47.04
78755;BME280;68073;54.176;-4.554;2023-04-03T03:36:44;102640.95;;;8.38;46.60
78755;BME280;68073;54.176;-4.554;2023-04-03T03:39:10;102642.57;;;8.26;47.32
78755;BME280;68073;54.176;-4.554;2023-04-03T03:41:35;102637.90;;;8.42;46.94
78755;BME280;68073;54.176;-4.554;2023-04-03T03:44:00;102639.47;;;8.56;46.47
78755;BME280;68073;54.176;-4.554;2023-04-03T03:46:25;102642.51;;;8.27;46.84
78755;BME280;68073;54.176;-4.554;2023-04-03T03:48:50;102639.49;;;8.36;47.39
78755;BME280;68073;54.176;-4.554;2023-04-03T03:51:16;102638.09;;;8.21;47.49
78755;BME280;68073;54.176;-4.554;2023-04-03T03:53:41;102644.13;;;8.31;47.40
78755;BME280;68073;54.176;-4.554;2023-04-03T03:56:07;102639.94;;;8.03;46.79
78755;BME280;68073;54.176;-4.554;2023-04-03T03:58:32;102634.98;;;8.35;47.52
78755;BME280;68073;54.176;-4.554;2023-04-03T04:01:00;102632.92;;;8.31;47.33
78755;BME280;68073;54.176;-4.554;2023-04-03T04:03:23;102635.50;;;8.07;47.23
78755;BME280;68073;54.176;-4.554;2023-04-03T04:05:48;102635.38;;;8.49;46.71
78755;BME280;68073;54.176;-4.554;2023-04-03T04:08:13;102635.27;;;8.21;46.44
78755;BME280;68073;54.176;-4.554;2023-04-03T04:10:38;102630.76;;;8.65;47.92
78755;BME280;68073;54.176;-4.554;2023-04-03T04:13:03;102636.48;;;8.08;48.10
78755;BME280;68073;54.176;-4.554;2023-04-03T04:15:29;102636.90;;;8.16;47.70
78755;BME280;68073;54.176;-4.554;2023-04-03T04:17:54;102636.68;;;8.20;47.75
78755;BME280;68073;54.176;-4.554;2023-04-03T04:20:19;102633.96;;;8.11;48.01
78755;BME280;68073;54.176;-4.554;2023-04-03T04:22:44;102635.21;;;8.39;48.42
78755;BME280;68073;54.176;-4.554;2023-04-03T04:25:10;102634.10;;;8.15;47.57
78755;BME280;68073;54.176;-4.554;2023-04-03T04:27:35;102635.54;;;8.16;46.85
78755;BME280;68073;54.176;-4.554;2023-04-03T04:30:00;102638.17;;;8.12;46.92
78755;BME280;68073;54.176;-4.554;2023-04-03T04:32:25;102636.90;;;8.15;47.34
78755;BME280;68073;54.176;-4.554;2023-04-03T04:34:50;102636.44;;;8.54;47.68
78755;BME280;68073;54.176;-4.554;2023-04-03T04:37:15;102632.59;;;7.87;47.55
78755;BME280;68073;54.176;-4.554;2023-04-03T04:39:41;102628.52;;;7.99;47.38
78755;BME280;68073;54.176;-4.554;2023-04-03T04:42:06;102630.32;;;8.02;46.76
78755;BME280;68073;54.176;-4.554;2023-04-03T04:44:31;102627.76;;;8.55;45.99
78755;BME280;68073;54.176;-4.554;2023-04-03T04:46:56;102627.06;;;8.33;46.05
78755;BME280;68073;54.176;-4.554;2023-04-03T04:49:21;102628.88;;;8.12;47.04
78755;BME280;68073;54.176;-4.554;2023-04-03T04:51:46;102630.74;;;7.91;46.89
78755;BME280;68073;54.176;-4.554;2023-04-03T04:54:11;102627.59;;;8.17;46.28
78755;BME280;68073;54.176;-4.554;2023-04-03T04:56:37;102625.44;;;8.31;46.49
78755;BME280;68073;54.176;-4.554;2023-04-03T04:59:02;102627.24;;;8.28;46.61
78755;BME280;68073;54.176;-4.554;2023-04-03T05:01:27;102626.44;;;7.93;46.04
78755;BME280;68073;54.176;-4.554;2023-04-03T05:03:52;102626.36;;;8.36;46.09
78755;BME280;68073;54.176;-4.554;2023-04-03T05:06:18;102627.64;;;7.69;47.55
78755;BME280;68073;54.176;-4.554;2023-04-03T05:08:43;102631.95;;;7.84;47.60
78755;BME280;68073;54.176;-4.554;2023-04-03T05:11:08;102631.98;;;8.12;46.49
78755;BME280;68073;54.176;-4.554;2023-04-03T05:13:33;102633.46;;;7.90;47.42
78755;BME280;68073;54.176;-4.554;2023-04-03T05:15:58;102634.19;;;8.06;46.89
78755;BME280;68073;54.176;-4.554;2023-04-03T05:18:24;102638.66;;;7.93;46.87
78755;BME280;68073;54.176;-4.554;2023-04-03T05:20:49;102639.87;;;8.18;45.46
78755;BME280;68073;54.176;-4.554;2023-04-03T05:23:14;102642.11;;;8.49;46.01
78755;BME280;68073;54.176;-4.554;2023-04-03T05:25:39;102644.76;;;7.93;46.49
78755;BME280;68073;54.176;-4.554;2023-04-03T05:28:04;102648.91;;;7.82;46.35
78755;BME280;68073;54.176;-4.554;2023-04-03T05:30:29;102648.61;;;8.36;46.38
78755;BME280;68073;54.176;-4.554;2023-04-03T05:32:55;102651.13;;;8.10;46.13
78755;BME280;68073;54.176;-4.554;2023-04-03T05:35:20;102651.69;;;7.92;45.93
78755;BME280;68073;54.176;-4.554;2023-04-03T05:37:46;102648.81;;;8.17;46.05
78755;BME280;68073;54.176;-4.554;2023-04-03T05:40:11;102656.39;;;8.07;46.43
78755;BME280;68073;54.176;-4.554;2023-04-03T05:42:36;102658.58;;;7.93;46.73
78755;BME280;68073;54.176;-4.554;2023-04-03T05:45:01;102661.76;;;8.31;46.30
78755;BME280;68073;54.176;-4.554;2023-04-03T05:47:27;102661.40;;;8.41;45.85
78755;BME280;68073;54.176;-4.554;2023-04-03T05:49:52;102665.56;;;8.13;45.86
78755;BME280;68073;54.176;-4.554;2023-04-03T05:52:21;102668.16;;;7.79;46.27
78755;BME280;68073;54.176;-4.554;2023-04-03T05:54:43;102668.42;;;7.98;46.62
78755;BME280;68073;54.176;-4.554;2023-04-03T05:57:08;102664.49;;;8.04;46.03
78755;BME280;68073;54.176;-4.554;2023-04-03T05:59:33;102665.53;;;8.19;46.91
78755;BME280;68073;54.176;-4.554;2023-04-03T06:01:58;102667.13;;;7.88;46.28
78755;BME280;68073;54.176;-4.554;2023-04-03T06:04:23;102665.54;;;8.22;44.58
78755;BME280;68073;54.176;-4.554;2023-04-03T06:06:50;102665.89;;;8.14;45.39
78755;BME280;68073;54.176;-4.554;2023-04-03T06:09:15;102664.23;;;8.17;45.57
78755;BME280;68073;54.176;-4.554;2023-04-03T06:11:39;102662.96;;;7.95;45.86
78755;BME280;68073;54.176;-4.554;2023-04-03T06:14:04;102664.55;;;8.18;47.25
78755;BME280;68073;54.176;-4.554;2023-04-03T06:16:29;102664.24;;;7.74;47.09
78755;BME280;68073;54.176;-4.554;2023-04-03T06:18:54;102662.26;;;7.77;46.59
78755;BME280;68073;54.176;-4.554;2023-04-03T06:21:20;102659.01;;;8.29;46.80
78755;BME280;68073;54.176;-4.554;2023-04-03T06:23:45;102658.77;;;8.18;46.58
78755;BME280;68073;54.176;-4.554;2023-04-03T06:26:11;102662.06;;;8.40;47.04
78755;BME280;68073;54.176;-4.554;2023-04-03T06:28:36;102659.55;;;8.22;46.91
78755;BME280;68073;54.176;-4.554;2023-04-03T06:31:01;102658.83;;;8.09;46.72
78755;BME280;68073;54.176;-4.554;2023-04-03T06:33:27;102662.10;;;8.67;48.23
78755;BME280;68073;54.176;-4.554;2023-04-03T06:35:57;102663.07;;;8.61;47.18
78755;BME280;68073;54.176;-4.554;2023-04-03T06:38:17;102660.38;;;8.19;47.58
78755;BME280;68073;54.176;-4.554;2023-04-03T06:40:43;102662.23;;;7.87;47.77
78755;BME280;68073;54.176;-4.554;2023-04-03T06:43:08;102662.99;;;8.25;48.83
78755;BME280;68073;54.176;-4.554;2023-04-03T06:45:34;102662.84;;;8.61;48.31
78755;BME280;68073;54.176;-4.554;2023-04-03T06:48:00;102668.08;;;8.28;47.61
78755;BME280;68073;54.176;-4.554;2023-04-03T06:50:25;102672.80;;;8.46;48.12
78755;BME280;68073;54.176;-4.554;2023-04-03T06:52:50;102674.27;;;8.34;47.39
78755;BME280;68073;54.176;-4.554;2023-04-03T06:55:16;102674.92;;;8.27;47.59
78755;BME280;68073;54.176;-4.554;2023-04-03T06:57:42;102672.03;;;8.11;45.55
78755;BME280;68073;54.176;-4.554;2023-04-03T07:00:08;102671.14;;;8.39;47.39
78755;BME280;68073;54.176;-4.554;2023-04-03T07:02:33;102671.66;;;8.60;46.11
78755;BME280;68073;54.176;-4.554;2023-04-03T07:04:58;102674.34;;;8.63;47.72
78755;BME280;68073;54.176;-4.554;2023-04-03T07:07:23;102674.42;;;8.75;48.22
78755;BME280;68073;54.176;-4.554;2023-04-03T07:09:49;102674.42;;;8.77;47.44
78755;BME280;68073;54.176;-4.554;2023-04-03T07:12:14;102678.17;;;8.45;46.47
78755;BME280;68073;54.176;-4.554;2023-04-03T07:14:40;102678.53;;;8.46;46.98
78755;BME280;68073;54.176;-4.554;2023-04-03T07:17:05;102676.14;;;8.71;47.71
78755;BME280;68073;54.176;-4.554;2023-04-03T07:19:30;102674.32;;;8.82;46.63
78755;BME280;68073;54.176;-4.554;2023-04-03T07:21:55;102679.02;;;8.63;46.63
78755;BME280;68073;54.176;-4.554;2023-04-03T07:24:21;102677.96;;;8.53;46.93
78755;BME280;68073;54.176;-4.554;2023-04-03T07:26:49;102677.34;;;8.81;45.89
78755;BME280;68073;54.176;-4.554;2023-04-03T07:29:11;102678.36;;;8.59;46.21
78755;BME280;68073;54.176;-4.554;2023-04-03T07:31:38;102678.07;;;8.91;45.71
78755;BME280;68073;54.176;-4.554;2023-04-03T07:34:02;102679.47;;;8.86;47.51
78755;BME280;68073;54.176;-4.554;2023-04-03T07:36:28;102682.04;;;8.76;46.83
78755;BME280;68073;54.176;-4.554;2023-04-03T07:38:53;102685.27;;;8.82;45.35
78755;BME280;68073;54.176;-4.554;2023-04-03T07:41:19;102685.12;;;8.71;47.16
78755;BME280;68073;54.176;-4.554;2023-04-03T07:43:44;102681.98;;;8.75;47.04
78755;BME280;68073;54.176;-4.554;2023-04-03T07:46:09;102680.92;;;8.87;47.75
78755;BME280;68073;54.176;-4.554;2023-04-03T07:48:35;102688.57;;;8.83;48.42
78755;BME280;68073;54.176;-4.554;2023-04-03T07:51:01;102684.85;;;9.07;47.66
78755;BME280;68073;54.176;-4.554;2023-04-03T07:53:26;102682.37;;;9.23;46.71
78755;BME280;68073;54.176;-4.554;2023-04-03T07:55:51;102679.58;;;8.96;46.98
78755;BME280;68073;54.176;-4.554;2023-04-03T07:58:18;102681.69;;;9.07;46.16
78755;BME280;68073;54.176;-4.554;2023-04-03T08:00:43;102681.40;;;8.92;46.54
78755;BME280;68073;54.176;-4.554;2023-04-03T08:03:10;102680.87;;;9.44;49.08
78755;BME280;68073;54.176;-4.554;2023-04-03T08:05:36;102681.94;;;9.10;46.35
78755;BME280;68073;54.176;-4.554;2023-04-03T08:07:59;102682.28;;;9.04;45.67
78755;BME280;68073;54.176;-4.554;2023-04-03T08:10:25;102676.95;;;8.70;45.08
78755;BME280;68073;54.176;-4.554;2023-04-03T08:12:50;102677.32;;;9.18;48.41
78755;BME280;68073;54.176;-4.554;2023-04-03T08:15:16;102675.87;;;9.60;48.71
78755;BME280;68073;54.176;-4.554;2023-04-03T08:17:42;102677.28;;;9.55;48.36
78755;BME280;68073;54.176;-4.554;2023-04-03T08:20:09;102676.53;;;9.73;48.38
78755;BME280;68073;54.176;-4.554;2023-04-03T08:22:33;102677.03;;;9.72;45.62
78755;BME280;68073;54.176;-4.554;2023-04-03T08:24:58;102675.88;;;9.37;46.56
78755;BME280;68073;54.176;-4.554;2023-04-03T08:27:24;102674.01;;;9.01;46.22
78755;BME280;68073;54.176;-4.554;2023-04-03T08:29:49;102667.51;;;9.02;46.20
78755;BME280;68073;54.176;-4.554;2023-04-03T08:32:14;102671.32;;;9.21;46.15
78755;BME280;68073;54.176;-4.554;2023-04-03T08:34:41;102676.18;;;8.89;44.17
78755;BME280;68073;54.176;-4.554;2023-04-03T08:37:06;102665.08;;;9.29;44.18
78755;BME280;68073;54.176;-4.554;2023-04-03T08:39:31;102670.69;;;9.52;44.20
78755;BME280;68073;54.176;-4.554;2023-04-03T08:41:59;102669.28;;;9.46;44.62
78755;BME280;68073;54.176;-4.554;2023-04-03T08:44:25;102677.23;;;9.56;45.78
78755;BME280;68073;54.176;-4.554;2023-04-03T08:46:56;102674.84;;;9.56;46.01
78755;BME280;68073;54.176;-4.554;2023-04-03T08:49:18;102671.29;;;9.11;46.21
78755;BME280;68073;54.176;-4.554;2023-04-03T08:51:38;102667.67;;;9.44;45.90
78755;BME280;68073;54.176;-4.554;2023-04-03T08:54:06;102669.60;;;9.81;47.39
78755;BME280;68073;54.176;-4.554;2023-04-03T08:56:30;102665.11;;;9.42;43.91
78755;BME280;68073;54.176;-4.554;2023-04-03T08:58:57;102674.51;;;9.60;47.09
78755;BME280;68073;54.176;-4.554;2023-04-03T09:01:21;102674.71;;;9.43;43.28
78755;BME280;68073;54.176;-4.554;2023-04-03T09:03:44;102672.62;;;9.52;46.84
78755;BME280;68073;54.176;-4.554;2023-04-03T09:06:14;102669.17;;;9.55;43.86
78755;BME280;68073;54.176;-4.554;2023-04-03T09:08:40;102674.92;;;9.76;47.03
78755;BME280;68073;54.176;-4.554;2023-04-03T09:11:11;102677.23;;;9.51;45.64
78755;BME280;68073;54.176;-4.554;2023-04-03T09:13:31;102674.89;;;10.11;47.35
78755;BME280;68073;54.176;-4.554;2023-04-03T09:15:50;102668.87;;;9.91;47.05
78755;BME280;68073;54.176;-4.554;2023-04-03T09:19:02;102668.84;;;9.51;44.57
78755;BME280;68073;54.176;-4.554;2023-04-03T09:20:46;102661.58;;;9.72;42.67
78755;BME280;68073;54.176;-4.554;2023-04-03T09:23:16;102665.25;;;9.46;44.62
78755;BME280;68073;54.176;-4.554;2023-04-03T09:25:32;102665.03;;;9.34;43.97
78755;BME280;68073;54.176;-4.554;2023-04-03T09:27:56;102665.05;;;9.76;43.04
78755;BME280;68073;54.176;-4.554;2023-04-03T09:30:23;102675.76;;;9.79;43.27
78755;BME280;68073;54.176;-4.554;2023-04-03T09:32:47;102673.10;;;9.97;44.79
78755;BME280;68073;54.176;-4.554;2023-04-03T09:35:20;102680.17;;;10.32;45.84
78755;BME280;68073;54.176;-4.554;2023-04-03T09:37:39;102683.17;;;10.38;45.19
78755;BME280;68073;54.176;-4.554;2023-04-03T09:40:02;102684.73;;;9.84;44.74
78755;BME280;68073;54.176;-4.554;2023-04-03T09:42:27;102683.88;;;9.51;41.45
78755;BME280;68073;54.176;-4.554;2023-04-03T09:44:54;102682.38;;;9.74;43.35
78755;BME280;68073;54.176;-4.554;2023-04-03T09:47:23;102682.59;;;10.30;43.25
78755;BME280;68073;54.176;-4.554;2023-04-03T09:49:44;102677.13;;;10.10;44.20
78755;BME280;68073;54.176;-4.554;2023-04-03T09:52:18;102679.96;;;9.84;44.60
78755;BME280;68073;54.176;-4.554;2023-04-03T09:54:37;102680.80;;;10.05;43.62
78755;BME280;68073;54.176;-4.554;2023-04-03T09:57:04;102678.36;;;9.91;44.39
78755;BME280;68073;54.176;-4.554;2023-04-03T09:59:26;102680.69;;;10.09;43.59
78755;BME280;68073;54.176;-4.554;2023-04-03T10:01:59;102681.14;;;10.15;43.65
78755;BME280;68073;54.176;-4.554;2023-04-03T10:04:18;102676.94;;;10.36;43.47
78755;BME280;68073;54.176;-4.554;2023-04-03T10:06:44;102671.93;;;10.73;43.59
78755;BME280;68073;54.176;-4.554;2023-04-03T10:09:16;102679.09;;;10.05;40.75
78755;BME280;68073;54.176;-4.554;2023-04-03T10:11:32;102681.51;;;10.49;42.25
78755;BME280;68073;54.176;-4.554;2023-04-03T10:13:59;102680.99;;;10.73;43.41
78755;BME280;68073;54.176;-4.554;2023-04-03T10:16:26;102678.63;;;11.07;43.25
78755;BME280;68073;54.176;-4.554;2023-04-03T10:18:57;102683.20;;;11.02;41.74
78755;BME280;68073;54.176;-4.554;2023-04-03T10:21:20;102682.59;;;10.60;40.05
78755;BME280;68073;54.176;-4.554;2023-04-03T10:23:42;102685.90;;;10.59;40.71
78755;BME280;68073;54.176;-4.554;2023-04-03T10:26:12;102684.92;;;10.37;39.57
78755;BME280;68073;54.176;-4.554;2023-04-03T10:28:35;102680.28;;;10.37;39.13
78755;BME280;68073;54.176;-4.554;2023-04-03T10:31:00;102674.82;;;10.61;40.51
78755;BME280;68073;54.176;-4.554;2023-04-03T10:33:32;102675.14;;;10.59;39.89
78755;BME280;68073;54.176;-4.554;2023-04-03T10:35:54;102664.87;;;10.54;39.64
78755;BME280;68073;54.176;-4.554;2023-04-03T10:38:16;102664.32;;;10.43;40.12
78755;BME280;68073;54.176;-4.554;2023-04-03T10:40:42;102665.58;;;10.79;40.04
78755;BME280;68073;54.176;-4.554;2023-04-03T10:43:06;102662.27;;;11.10;39.20
78755;BME280;68073;54.176;-4.554;2023-04-03T10:45:30;102661.50;;;10.72;40.32
78755;BME280;68073;54.176;-4.554;2023-04-03T10:48:02;102661.50;;;11.01;39.00
78755;BME280;68073;54.176;-4.554;2023-04-03T10:50:29;102662.99;;;10.92;38.16
78755;BME280;68073;54.176;-4.554;2023-04-03T10:52:48;102657.03;;;11.38;39.17
78755;BME280;68073;54.176;-4.554;2023-04-03T10:55:19;102659.89;;;10.90;38.31
78755;BME280;68073;54.176;-4.554;2023-04-03T10:57:33;102656.17;;;10.61;39.00
78755;BME280;68073;54.176;-4.554;2023-04-03T11:00:03;102651.91;;;11.21;39.33
78755;BME280;68073;54.176;-4.554;2023-04-03T11:02:28;102645.00;;;11.27;40.04
78755;BME280;68073;54.176;-4.554;2023-04-03T11:04:56;102645.45;;;11.43;38.23
78755;BME280;68073;54.176;-4.554;2023-04-03T11:07:20;102646.51;;;10.70;39.71
78755;BME280;68073;54.176;-4.554;2023-04-03T11:09:43;102642.08;;;11.34;39.25
78755;BME280;68073;54.176;-4.554;2023-04-03T11:12:13;102640.72;;;11.47;39.87
78755;BME280;68073;54.176;-4.554;2023-04-03T11:14:32;102641.99;;;10.99;40.40
78755;BME280;68073;54.176;-4.554;2023-04-03T11:17:04;102642.39;;;11.14;39.98
78755;BME280;68073;54.176;-4.554;2023-04-03T11:19:27;102639.31;;;11.53;41.42
78755;BME280;68073;54.176;-4.554;2023-04-03T11:21:53;102635.44;;;11.51;40.97
78755;BME280;68073;54.176;-4.554;2023-04-03T11:24:20;102624.66;;;11.60;40.53
78755;BME280;68073;54.176;-4.554;2023-04-03T11:26:41;102626.14;;;11.70;40.44
78755;BME280;68073;54.176;-4.554;2023-04-03T11:29:07;102625.96;;;11.73;40.40
78755;BME280;68073;54.176;-4.554;2023-04-03T11:31:41;102624.86;;;11.48;40.10
78755;BME280;68073;54.176;-4.554;2023-04-03T11:34:02;102618.45;;;11.51;39.24
78755;BME280;68073;54.176;-4.554;2023-04-03T11:36:23;102619.51;;;11.64;37.87
78755;BME280;68073;54.176;-4.554;2023-04-03T11:38:47;102620.21;;;11.12;38.58
78755;BME280;68073;54.176;-4.554;2023-04-03T11:41:12;102619.12;;;11.77;39.30
78755;BME280;68073;54.176;-4.554;2023-04-03T11:43:41;102621.13;;;11.21;38.89
78755;BME280;68073;54.176;-4.554;2023-04-03T11:46:03;102612.72;;;11.81;38.52
78755;BME280;68073;54.176;-4.554;2023-04-03T11:48:47;102611.42;;;11.97;37.94
78755;BME280;68073;54.176;-4.554;2023-04-03T11:50:54;102611.81;;;11.72;37.10
78755;BME280;68073;54.176;-4.554;2023-04-03T11:53:30;102611.67;;;11.98;36.06
78755;BME280;68073;54.176;-4.554;2023-04-03T11:55:53;102613.08;;;12.26;37.63
78755;BME280;68073;54.176;-4.554;2023-04-03T11:58:14;102608.12;;;12.28;39.71
78755;BME280;68073;54.176;-4.554;2023-04-03T12:00:48;102610.69;;;12.21;39.53
78755;BME280;68073;54.176;-4.554;2023-04-03T12:05:30;102604.32;;;12.67;38.78
78755;BME280;68073;54.176;-4.554;2023-04-03T12:10:20;102587.70;;;12.69;37.65
78755;BME280;68073;54.176;-4.554;2023-04-03T12:12:57;102587.54;;;12.96;37.68
78755;BME280;68073;54.176;-4.554;2023-04-03T12:15:19;102587.56;;;13.02;37.51
78755;BME280;68073;54.176;-4.554;2023-04-03T12:17:38;102584.27;;;13.32;35.29
78755;BME280;68073;54.176;-4.554;2023-04-03T12:22:28;102578.68;;;13.08;35.15
78755;BME280;68073;54.176;-4.554;2023-04-03T12:24:54;102575.78;;;13.01;35.77
78755;BME280;68073;54.176;-4.554;2023-04-03T12:27:28;102576.59;;;13.32;34.54
78755;BME280;68073;54.176;-4.554;2023-04-03T12:29:50;102569.90;;;13.12;36.18
78755;BME280;68073;54.176;-4.554;2023-04-03T12:32:19;102565.31;;;14.10;35.13
78755;BME280;68073;54.176;-4.554;2023-04-03T12:34:46;102563.67;;;14.73;34.33
78755;BME280;68073;54.176;-4.554;2023-04-03T12:37:07;102559.30;;;15.25;32.43
78755;BME280;68073;54.176;-4.554;2023-04-03T12:39:37;102558.45;;;15.31;31.12
78755;BME280;68073;54.176;-4.554;2023-04-03T12:42:00;102561.35;;;15.32;30.73
78755;BME280;68073;54.176;-4.554;2023-04-03T12:44:26;102558.26;;;16.34;30.47
78755;BME280;68073;54.176;-4.554;2023-04-03T12:46:47;102556.62;;;16.87;30.29
78755;BME280;68073;54.176;-4.554;2023-04-03T12:49:30;102557.89;;;16.09;32.68
78755;BME280;68073;54.176;-4.554;2023-04-03T12:51:38;102559.04;;;17.25;30.42